Aviation Digital Data Service (ADDS)

Output produced by METARs form (1725 UTC 16 June 2019)
found at http://www.aviationweather.gov/metar/data/
 
Forecast for: RJSA (AOMORI AIRPORT , JP)
Text: TAF RJSA 161105Z 1612/1718 25013KT 6000 -SHRA FEW005 SCT010 BKN020
Forecast period: 1200 UTC 16 June 2019 to 1800 UTC 17 June 2019
Forecast type: FROM: standard forecast or significant change
Winds: from the WSW (250 degrees) at 15 MPH (13 knots; 6.7 m/s)
Visibility: 4 miles (6 km)
Ceiling: 2000 feet AGL
Clouds: few clouds at 500 feet AGL
scattered clouds at 1000 feet AGL
broken clouds at 2000 feet AGL
Weather: -SHRA  (light rain showers)
Text: TEMPO 1612/1618 1500 -SHRA BR FEW002 BKN005 BKN008
Forecast period: 1200 to 1800 UTC 16 June 2019
Forecast type: TEMPORARY: The following changes expected for less than half the time period
Visibility: 0.93 miles (1.50 km)
Ceiling: 500 feet AGL
Clouds: few clouds at 200 feet AGL
broken clouds at 500 feet AGL
broken clouds at 800 feet AGL
Weather: -SHRA BR  (light rain showers, mist)
Text: TEMPO 1700/1706 27015G25KT
Forecast period: 0000 to 0600 UTC 17 June 2019
Forecast type: TEMPORARY: The following changes expected for less than half the time period
Winds: from the W (270 degrees) at 17 MPH (15 knots; 7.7 m/s)
gusting to 29 MPH (25 knots; 12.9 m/s)
Visibility: missing
Ceiling: unknown
Clouds: missing
Weather: no significant weather forecast for this period